createdAt,value
2018-10-21T00:00:44.754Z,0.00
2018-10-21T00:01:44.746Z,0.00
2018-10-21T00:02:44.739Z,0.00
2018-10-21T00:03:44.729Z,0.00
2018-10-21T00:04:44.715Z,0.00
2018-10-21T00:05:44.707Z,0.00
2018-10-21T00:06:44.703Z,0.00
2018-10-21T00:07:44.698Z,0.00
2018-10-21T00:08:44.679Z,0.00
2018-10-21T00:09:44.672Z,0.00
2018-10-21T00:10:44.663Z,0.00
2018-10-21T00:11:44.652Z,0.00
2018-10-21T00:12:44.652Z,0.00
2018-10-21T00:13:44.639Z,0.00
2018-10-21T00:14:44.632Z,0.00
2018-10-21T00:15:44.741Z,0.00
2018-10-21T00:16:44.608Z,0.00
2018-10-21T00:17:44.603Z,0.00
2018-10-21T00:18:44.590Z,0.00
2018-10-21T00:19:44.582Z,0.00
2018-10-21T00:20:44.577Z,0.00
2018-10-21T00:21:44.569Z,0.00
2018-10-21T00:22:44.555Z,0.00
2018-10-21T00:23:44.546Z,0.00
2018-10-21T00:24:44.544Z,0.00
2018-10-21T00:25:44.532Z,0.00
2018-10-21T00:26:44.523Z,0.00
2018-10-21T00:27:44.513Z,0.00
2018-10-21T00:28:44.500Z,0.00
2018-10-21T00:29:44.491Z,0.00
2018-10-21T00:30:44.483Z,0.00
2018-10-21T00:31:44.473Z,0.00
2018-10-21T00:32:44.468Z,0.00
2018-10-21T00:33:44.464Z,0.00
2018-10-21T00:34:44.456Z,0.00
2018-10-21T00:35:44.445Z,0.00
2018-10-21T00:36:44.429Z,0.00
2018-10-21T00:37:44.422Z,0.00
2018-10-21T00:38:44.420Z,0.00
2018-10-21T00:39:44.410Z,0.00
2018-10-21T00:40:44.392Z,0.00
2018-10-21T00:41:44.384Z,0.00
2018-10-21T00:42:44.376Z,0.00
2018-10-21T00:43:44.365Z,0.00
2018-10-21T00:44:44.360Z,0.00
2018-10-21T00:45:44.352Z,0.00
2018-10-21T00:46:44.345Z,0.00
2018-10-21T00:47:44.334Z,0.00
2018-10-21T00:48:44.321Z,0.00
2018-10-21T00:49:44.313Z,0.00
2018-10-21T00:50:44.303Z,0.00
2018-10-21T00:51:44.297Z,0.00
2018-10-21T00:52:44.293Z,0.00
2018-10-21T00:53:44.280Z,0.00
2018-10-21T00:54:44.266Z,0.00
2018-10-21T00:55:44.256Z,0.00
2018-10-21T00:56:44.253Z,0.00
2018-10-21T00:57:44.244Z,0.00
2018-10-21T00:58:44.234Z,0.00
2018-10-21T00:59:44.225Z,0.00
2018-10-21T01:00:44.211Z,0.00
2018-10-21T01:01:44.202Z,0.00
2018-10-21T01:02:44.193Z,0.00
2018-10-21T01:03:44.185Z,0.00
2018-10-21T01:04:44.180Z,0.00
2018-10-21T01:05:44.171Z,0.00
2018-10-21T01:06:44.164Z,0.00
2018-10-21T01:07:44.153Z,0.00
2018-10-21T01:08:44.139Z,0.00
2018-10-21T01:09:44.131Z,0.00
2018-10-21T01:10:44.127Z,0.00
2018-10-21T01:11:44.117Z,0.00
2018-10-21T01:12:44.103Z,0.00
2018-10-21T01:13:44.095Z,0.00
2018-10-21T01:14:44.085Z,0.00
2018-10-21T01:15:44.078Z,0.00
2018-10-21T01:16:44.073Z,0.00
2018-10-21T01:17:44.062Z,0.00
2018-10-21T01:18:44.054Z,0.00
2018-10-21T01:19:44.043Z,0.00
2018-10-21T01:20:44.029Z,0.00
2018-10-21T01:21:44.021Z,0.00
2018-10-21T01:22:44.013Z,0.00
2018-10-21T01:23:44.004Z,0.00
2018-10-21T01:24:43.999Z,0.00
2018-10-21T01:25:43.990Z,0.00
2018-10-21T01:26:43.976Z,0.00
2018-10-21T01:27:43.966Z,0.00
2018-10-21T01:28:43.962Z,0.00
2018-10-21T01:29:43.957Z,0.00
2018-10-21T01:30:43.943Z,0.00
2018-10-21T01:31:43.934Z,0.00
2018-10-21T01:32:43.921Z,0.00
2018-10-21T01:33:43.910Z,0.00
2018-10-21T01:34:43.902Z,0.00
2018-10-21T01:35:43.893Z,0.00
2018-10-21T01:36:43.965Z,0.00
2018-10-21T01:37:43.883Z,0.00
2018-10-21T01:38:43.870Z,0.00
2018-10-21T01:39:43.861Z,0.00
2018-10-21T01:40:43.846Z,0.00
2018-10-21T01:41:43.837Z,0.00
2018-10-21T01:42:43.839Z,0.00
2018-10-21T01:43:43.824Z,0.00
2018-10-21T01:44:43.810Z,0.00
2018-10-21T01:45:43.801Z,0.00
2018-10-21T01:46:43.791Z,0.00
2018-10-21T01:47:43.785Z,0.00
2018-10-21T01:48:43.776Z,0.00
2018-10-21T01:49:43.769Z,0.00
2018-10-21T01:50:43.759Z,0.00
2018-10-21T01:51:43.750Z,0.00
2018-10-21T01:52:43.737Z,0.00
2018-10-21T01:53:43.727Z,0.00
2018-10-21T01:54:43.717Z,0.00
2018-10-21T01:55:43.707Z,0.00
2018-10-21T01:56:43.703Z,0.00
2018-10-21T01:57:43.694Z,0.00
2018-10-21T01:58:43.680Z,0.00
2018-10-21T01:59:43.671Z,0.00
2018-10-21T02:00:43.688Z,0.00
2018-10-21T02:01:43.657Z,0.00
2018-10-21T02:02:43.648Z,0.00
2018-10-21T02:03:43.638Z,0.00
2018-10-21T02:04:43.629Z,0.00
2018-10-21T02:05:43.615Z,0.00
2018-10-21T02:06:43.607Z,0.00
2018-10-21T02:07:43.596Z,0.00
2018-10-21T02:08:43.592Z,0.00
2018-10-21T02:09:43.582Z,0.00
2018-10-21T02:10:43.576Z,0.00
2018-10-21T02:11:43.566Z,0.00
2018-10-21T02:12:43.549Z,0.00
2018-10-21T02:13:43.541Z,0.00
2018-10-21T02:14:43.535Z,0.00
2018-10-21T02:15:43.525Z,0.00
2018-10-21T02:16:43.512Z,0.00
2018-10-21T02:17:43.503Z,0.00
2018-10-21T02:18:43.495Z,0.00
2018-10-21T02:19:43.484Z,0.00
2018-10-21T02:20:43.480Z,0.00
2018-10-21T02:21:43.470Z,0.00
2018-10-21T02:22:43.461Z,0.00
2018-10-21T02:23:43.451Z,0.00
2018-10-21T02:24:43.437Z,0.00
2018-10-21T02:25:43.429Z,0.00
2018-10-21T02:26:43.465Z,0.00
2018-10-21T02:27:43.408Z,0.00
2018-10-21T02:28:43.406Z,0.00
2018-10-21T02:29:43.395Z,0.00
2018-10-21T02:30:43.381Z,0.00
2018-10-21T02:31:43.371Z,0.00
2018-10-21T02:32:43.367Z,0.00
2018-10-21T02:33:43.446Z,0.00
2018-10-21T02:34:43.349Z,0.00
2018-10-21T02:35:43.341Z,0.00
2018-10-21T02:36:43.324Z,0.00
2018-10-21T02:37:43.315Z,0.00
2018-10-21T02:38:43.308Z,0.00
2018-10-21T02:39:43.300Z,0.00
2018-10-21T02:40:43.292Z,0.00
2018-10-21T02:41:43.282Z,0.00
2018-10-21T02:42:43.273Z,0.00
2018-10-21T02:43:43.263Z,0.00
2018-10-21T02:44:43.249Z,0.00
2018-10-21T02:45:43.240Z,0.00
2018-10-21T02:46:43.236Z,0.00
2018-10-21T02:47:43.225Z,0.00
2018-10-21T02:48:43.211Z,0.00
2018-10-21T02:49:43.201Z,0.00
2018-10-21T02:50:43.192Z,0.00
2018-10-21T02:51:43.187Z,0.00
2018-10-21T02:52:43.177Z,0.00
2018-10-21T02:53:43.170Z,0.00
2018-10-21T02:54:43.159Z,0.00
2018-10-21T02:55:43.149Z,0.00
2018-10-21T02:56:43.144Z,0.00
2018-10-21T02:57:43.134Z,0.00
2018-10-21T02:58:43.117Z,0.00
2018-10-21T02:59:43.107Z,0.00
2018-10-21T03:00:43.102Z,0.00
2018-10-21T03:01:43.093Z,0.00
2018-10-21T03:02:43.079Z,0.00
2018-10-21T03:03:43.070Z,0.00
2018-10-21T03:04:43.065Z,0.00
2018-10-21T03:05:43.055Z,0.00
2018-10-21T03:06:43.046Z,0.00
2018-10-21T03:07:43.036Z,0.00
2018-10-21T03:08:43.022Z,0.00
2018-10-21T03:09:43.012Z,0.00
2018-10-21T03:10:43.006Z,0.00
2018-10-21T03:11:42.997Z,0.00
2018-10-21T03:12:42.989Z,0.00
2018-10-21T03:13:42.978Z,0.00
2018-10-21T03:14:42.970Z,0.00
2018-10-21T03:15:42.965Z,0.00
2018-10-21T03:16:42.947Z,0.00
2018-10-21T03:17:42.936Z,0.00
2018-10-21T03:18:42.935Z,0.00
2018-10-21T03:19:42.923Z,0.00
2018-10-21T03:20:42.908Z,0.00
2018-10-21T03:21:42.900Z,0.00
2018-10-21T03:22:42.894Z,0.00
2018-10-21T03:23:42.879Z,0.00
2018-10-21T03:24:42.875Z,0.00
2018-10-21T03:25:42.865Z,0.00
2018-10-21T03:26:42.857Z,0.00
2018-10-21T03:27:42.845Z,0.00
2018-10-21T03:28:42.835Z,0.00
2018-10-21T03:29:42.823Z,0.00
2018-10-21T03:30:42.816Z,0.00
2018-10-21T03:31:42.806Z,0.00
2018-10-21T03:32:42.850Z,0.00
2018-10-21T03:33:42.969Z,0.00
2018-10-21T03:34:42.781Z,0.00
2018-10-21T03:35:42.765Z,0.00
2018-10-21T03:36:42.762Z,0.00
2018-10-21T03:37:42.752Z,0.00
2018-10-21T03:38:42.745Z,0.00
2018-10-21T03:39:42.732Z,0.00
2018-10-21T03:40:42.718Z,0.00
2018-10-21T03:41:42.709Z,0.00
2018-10-21T03:42:42.700Z,0.00
2018-10-21T03:43:42.690Z,0.00
2018-10-21T03:44:42.685Z,0.00
2018-10-21T03:45:42.682Z,0.00
2018-10-21T03:46:42.666Z,0.00
2018-10-21T03:47:42.655Z,0.00
2018-10-21T03:48:42.645Z,0.00
2018-10-21T03:49:42.633Z,0.00
2018-10-21T03:50:42.628Z,0.00
2018-10-21T03:51:42.618Z,0.00
2018-10-21T03:52:42.603Z,0.00
2018-10-21T03:53:42.594Z,0.00
2018-10-21T03:54:42.584Z,0.00
2018-10-21T03:55:42.575Z,0.00
2018-10-21T03:56:42.568Z,0.00
2018-10-21T03:57:42.562Z,0.00
2018-10-21T03:58:42.552Z,0.00
2018-10-21T03:59:42.542Z,0.00
2018-10-21T04:00:42.526Z,0.00
2018-10-21T04:01:42.517Z,0.00
2018-10-21T04:02:42.507Z,0.00
2018-10-21T04:03:42.497Z,0.00
2018-10-21T04:04:42.492Z,0.00
2018-10-21T04:05:42.483Z,0.00
2018-10-21T04:06:42.471Z,0.00
2018-10-21T04:07:42.461Z,0.00
2018-10-21T04:08:42.454Z,0.00
2018-10-21T04:09:42.445Z,0.00
2018-10-21T04:10:42.436Z,0.00
2018-10-21T04:11:42.425Z,0.00
2018-10-21T04:12:42.410Z,0.00
2018-10-21T04:13:42.402Z,0.00
2018-10-21T04:14:42.393Z,0.00
2018-10-21T04:15:42.385Z,0.00
2018-10-21T04:16:42.377Z,0.00
2018-10-21T04:17:42.368Z,0.00
2018-10-21T04:18:42.358Z,0.00
2018-10-21T04:19:42.346Z,0.00
2018-10-21T04:20:42.335Z,0.00
2018-10-21T04:21:42.324Z,0.00
2018-10-21T04:22:42.319Z,0.00
2018-10-21T04:23:42.308Z,0.00
2018-10-21T04:24:42.294Z,0.00
2018-10-21T04:25:42.286Z,0.00
2018-10-21T04:26:42.277Z,0.00
2018-10-21T04:27:42.268Z,0.00
2018-10-21T04:28:42.262Z,0.00
2018-10-21T04:29:42.252Z,0.00
2018-10-21T04:30:42.243Z,0.00
2018-10-21T04:31:42.232Z,0.00
2018-10-21T04:32:42.219Z,0.00
2018-10-21T04:33:42.209Z,0.00
2018-10-21T04:34:42.200Z,0.00
2018-10-21T04:35:42.188Z,0.00
2018-10-21T04:36:42.183Z,0.00
2018-10-21T04:37:42.174Z,0.00
2018-10-21T04:38:42.161Z,0.00
2018-10-21T04:39:42.150Z,0.00
2018-10-21T04:40:42.144Z,0.00
2018-10-21T04:41:42.136Z,0.00
2018-10-21T04:42:42.127Z,0.00
2018-10-21T04:43:42.117Z,0.00
2018-10-21T04:44:42.102Z,0.00
2018-10-21T04:45:42.093Z,0.00
2018-10-21T04:46:42.102Z,0.00
2018-10-21T04:47:42.076Z,0.00
2018-10-21T04:48:42.067Z,0.00
2018-10-21T04:49:42.058Z,0.00
2018-10-21T04:50:42.049Z,0.00
2018-10-21T04:51:42.038Z,0.00
2018-10-21T04:52:42.025Z,0.00
2018-10-21T04:53:42.015Z,0.00
2018-10-21T04:54:42.010Z,0.00
2018-10-21T04:55:41.998Z,0.00
2018-10-21T04:56:41.986Z,0.00
2018-10-21T04:57:41.976Z,0.00
2018-10-21T04:58:41.967Z,0.00
2018-10-21T04:59:41.956Z,0.00
2018-10-21T05:00:42.030Z,0.00
2018-10-21T05:01:41.942Z,0.00
2018-10-21T05:02:41.934Z,0.00
2018-10-21T05:03:41.921Z,0.00
2018-10-21T05:04:41.907Z,0.00
2018-10-21T05:05:41.898Z,0.00
2018-10-21T05:06:41.889Z,0.00
2018-10-21T05:07:42.021Z,0.00
2018-10-21T05:08:41.874Z,0.00
2018-10-21T05:09:41.864Z,0.00
2018-10-21T05:10:41.849Z,0.00
2018-10-21T05:11:41.839Z,0.00
2018-10-21T05:12:41.835Z,0.00
2018-10-21T05:13:41.825Z,0.00
2018-10-21T05:14:41.814Z,0.00
2018-10-21T05:15:41.804Z,0.00
2018-10-21T05:16:41.895Z,0.00
2018-10-21T05:17:41.781Z,0.00
2018-10-21T05:18:41.770Z,0.00
2018-10-21T05:19:41.761Z,0.00
2018-10-21T05:20:41.755Z,0.00
2018-10-21T05:21:41.745Z,0.00
2018-10-21T05:22:41.737Z,0.00
2018-10-21T05:23:41.727Z,0.00
2018-10-21T05:24:41.712Z,0.00
2018-10-21T05:25:41.706Z,0.00
2018-10-21T05:26:41.698Z,0.00
2018-10-21T05:27:41.688Z,0.00
2018-10-21T05:28:41.672Z,0.00
2018-10-21T05:29:41.663Z,0.00
2018-10-21T05:30:41.657Z,4.00
2018-10-21T05:31:41.643Z,0.00
2018-10-21T05:32:41.640Z,4.00
2018-10-21T05:33:41.631Z,4.00
2018-10-21T05:34:41.618Z,4.00
2018-10-21T05:35:41.607Z,4.00
2018-10-21T05:36:41.593Z,8.00
2018-10-21T05:37:41.612Z,8.00
2018-10-21T05:38:41.574Z,4.00
2018-10-21T05:39:41.564Z,8.00
2018-10-21T05:40:41.648Z,12.00
2018-10-21T05:41:41.549Z,12.00
2018-10-21T05:42:41.536Z,16.00
2018-10-21T05:43:41.524Z,16.00
2018-10-21T05:44:41.520Z,20.00
2018-10-21T05:45:41.510Z,24.00
2018-10-21T05:46:41.521Z,28.00
2018-10-21T05:47:41.489Z,36.00
2018-10-21T05:48:41.475Z,36.00
2018-10-21T05:49:41.465Z,48.00
2018-10-21T05:50:41.455Z,56.00
2018-10-21T05:51:41.444Z,60.00
2018-10-21T05:52:41.439Z,72.00
2018-10-21T05:53:41.431Z,80.00
2018-10-21T05:54:41.421Z,92.00
2018-10-21T05:55:41.410Z,100.00
2018-10-21T05:56:41.395Z,116.00
2018-10-21T05:57:41.412Z,128.00
2018-10-21T05:58:41.382Z,144.00
2018-10-21T05:59:41.369Z,156.00
2018-10-21T06:00:41.360Z,176.00
2018-10-21T06:01:41.347Z,196.00
2018-10-21T06:02:41.387Z,212.00
2018-10-21T06:03:41.327Z,236.00
2018-10-21T06:04:41.320Z,256.00
2018-10-21T06:05:41.310Z,280.00
2018-10-21T06:06:41.302Z,300.00
2018-10-21T06:07:41.292Z,328.00
2018-10-21T06:08:41.277Z,356.00
2018-10-21T06:09:41.267Z,380.00
2018-10-21T06:10:41.258Z,412.00
2018-10-21T06:11:41.247Z,440.00
2018-10-21T06:12:41.251Z,476.00
2018-10-21T06:13:41.231Z,508.00
2018-10-21T06:14:41.218Z,544.00
2018-10-21T06:15:41.224Z,580.00
2018-10-21T06:16:41.202Z,620.00
2018-10-21T06:17:41.194Z,664.00
2018-10-21T06:18:41.184Z,708.00
2018-10-21T06:19:41.172Z,748.00
2018-10-21T06:20:41.159Z,780.00
2018-10-21T06:21:41.148Z,824.00
2018-10-21T06:22:41.140Z,880.00
2018-10-21T06:23:41.137Z,952.00
2018-10-21T06:24:41.124Z,1028.00
2018-10-21T06:25:41.114Z,1100.00
2018-10-21T06:26:41.105Z,1180.00
2018-10-21T06:27:41.162Z,1320.00
2018-10-21T06:28:41.079Z,1524.00
2018-10-21T06:29:41.070Z,1752.00
2018-10-21T06:30:41.069Z,2004.00
2018-10-21T06:31:41.055Z,2132.00
2018-10-21T06:32:41.043Z,2036.00
2018-10-21T06:33:41.148Z,1872.00
2018-10-21T06:34:41.022Z,1844.00
2018-10-21T06:35:41.011Z,1876.00
2018-10-21T06:36:41.038Z,1924.00
2018-10-21T06:37:40.998Z,1980.00
2018-10-21T06:38:40.988Z,2032.00
2018-10-21T06:39:40.978Z,2076.00
2018-10-21T06:40:40.964Z,2124.00
2018-10-21T06:41:40.953Z,2180.00
2018-10-21T06:42:40.950Z,2240.00
2018-10-21T06:43:40.934Z,2308.00
2018-10-21T06:44:40.929Z,2380.00
2018-10-21T06:45:41.017Z,2464.00
2018-10-21T06:46:40.910Z,2568.00
2018-10-21T06:47:40.897Z,2692.00
2018-10-21T06:48:40.894Z,2836.00
2018-10-21T06:49:40.883Z,2988.00
2018-10-21T06:50:40.876Z,3180.00
2018-10-21T06:51:40.865Z,3488.00
2018-10-21T06:52:40.851Z,4080.00
2018-10-21T06:53:40.843Z,4932.00
2018-10-21T06:54:40.834Z,6192.00
2018-10-21T06:55:40.823Z,8168.00
2018-10-21T06:56:40.901Z,9840.00
2018-10-21T06:57:40.866Z,10340.00
2018-10-21T06:58:40.800Z,10644.00
2018-10-21T06:59:40.792Z,10924.00
2018-10-21T07:00:40.778Z,11184.00
2018-10-21T07:01:40.770Z,11520.00
2018-10-21T07:02:40.767Z,11884.00
2018-10-21T07:03:40.759Z,12252.00
2018-10-21T07:04:40.812Z,12640.00
2018-10-21T07:05:40.739Z,12864.00
2018-10-21T07:06:40.732Z,13152.00
2018-10-21T07:07:40.725Z,13440.00
2018-10-21T07:08:40.722Z,13728.00
2018-10-21T07:09:40.717Z,14080.00
2018-10-21T07:10:40.710Z,14272.00
2018-10-21T07:11:40.704Z,14400.00
2018-10-21T07:12:40.694Z,14656.00
2018-10-21T07:13:40.688Z,14880.00
2018-10-21T07:14:40.687Z,15168.00
2018-10-21T07:15:40.738Z,15424.00
2018-10-21T07:16:40.845Z,15712.00
2018-10-21T07:17:40.675Z,15968.00
2018-10-21T07:18:40.665Z,16224.00
2018-10-21T07:19:40.662Z,16576.00
2018-10-21T07:20:40.663Z,16800.00
2018-10-21T07:21:40.660Z,17152.00
2018-10-21T07:22:40.656Z,17408.00
2018-10-21T07:23:40.653Z,17760.00
2018-10-21T07:24:40.645Z,18080.00
2018-10-21T07:25:40.643Z,18240.00
2018-10-21T07:26:40.643Z,18496.00
2018-10-21T07:27:40.639Z,18656.00
2018-10-21T07:28:40.644Z,18880.00
2018-10-21T07:29:40.642Z,19104.00
2018-10-21T07:30:40.640Z,19328.00
2018-10-21T07:31:40.639Z,19552.00
2018-10-21T07:32:40.633Z,19872.00
2018-10-21T07:33:40.632Z,20000.00
2018-10-21T07:34:40.638Z,20128.00
2018-10-21T07:35:40.636Z,20352.00
2018-10-21T07:36:40.632Z,20544.00
2018-10-21T07:37:40.631Z,20768.00
2018-10-21T07:38:40.633Z,10688.00
2018-10-21T07:39:40.632Z,10772.00
2018-10-21T07:40:40.637Z,10856.00
2018-10-21T07:41:40.637Z,10976.00
2018-10-21T07:42:40.638Z,11124.00
2018-10-21T07:43:40.639Z,11260.00
2018-10-21T07:44:40.636Z,11376.00
2018-10-21T07:45:40.640Z,11432.00
2018-10-21T07:46:40.712Z,11508.00
2018-10-21T07:47:40.640Z,11604.00
2018-10-21T07:48:40.648Z,11692.00
2018-10-21T07:49:40.648Z,11796.00
2018-10-21T07:50:40.645Z,11848.00
2018-10-21T07:51:40.648Z,11972.00
2018-10-21T07:52:40.653Z,12148.00
2018-10-21T07:53:40.655Z,12280.00
2018-10-21T07:54:40.657Z,12452.00
2018-10-21T07:55:40.709Z,12604.00
2018-10-21T07:56:40.655Z,12652.00
2018-10-21T07:57:40.657Z,12736.00
2018-10-21T07:58:40.659Z,12812.00
2018-10-21T07:59:40.660Z,12880.00
2018-10-21T08:00:40.668Z,12956.00
2018-10-21T08:01:40.671Z,13004.00
2018-10-21T08:02:40.677Z,12972.00
2018-10-21T08:03:40.676Z,12952.00
2018-10-21T08:04:40.730Z,12936.00
2018-10-21T08:05:40.678Z,12916.00
2018-10-21T08:06:40.685Z,12928.00
2018-10-21T08:07:40.686Z,13028.00
2018-10-21T08:08:40.788Z,13104.00
2018-10-21T08:09:40.688Z,13160.00
2018-10-21T08:10:40.691Z,13220.00
2018-10-21T08:11:40.694Z,13264.00
2018-10-21T08:12:40.702Z,13332.00
2018-10-21T08:13:40.706Z,13380.00
2018-10-21T08:14:40.769Z,13480.00
2018-10-21T08:15:40.717Z,13504.00
2018-10-21T08:16:40.710Z,13640.00
2018-10-21T08:17:40.714Z,13684.00
2018-10-21T08:18:40.719Z,13752.00
2018-10-21T08:19:40.720Z,13900.00
2018-10-21T08:20:40.731Z,13996.00
2018-10-21T08:21:40.733Z,14092.00
2018-10-21T08:22:40.733Z,14136.00
2018-10-21T08:23:40.737Z,14336.00
2018-10-21T08:24:40.746Z,14464.00
2018-10-21T08:25:40.755Z,14528.00
2018-10-21T08:26:40.754Z,14624.00
2018-10-21T08:27:40.759Z,14752.00
2018-10-21T08:28:40.758Z,14880.00
2018-10-21T08:29:40.764Z,15136.00
2018-10-21T08:30:40.768Z,16224.00
2018-10-21T08:31:40.772Z,17760.00
2018-10-21T08:32:40.782Z,19296.00
2018-10-21T08:33:40.787Z,21184.00
2018-10-21T08:34:40.791Z,22752.00
2018-10-21T08:35:40.794Z,23936.00
2018-10-21T08:36:40.796Z,24192.00
2018-10-21T08:37:40.800Z,24512.00
2018-10-21T08:38:40.809Z,24544.00
2018-10-21T08:39:40.813Z,25056.00
2018-10-21T08:40:40.816Z,25920.00
2018-10-21T08:41:40.824Z,27232.00
2018-10-21T08:42:40.826Z,26368.00
2018-10-21T08:43:40.830Z,26272.00
2018-10-21T08:44:40.840Z,25792.00
2018-10-21T08:45:40.845Z,26176.00
2018-10-21T08:46:40.938Z,26624.00
2018-10-21T08:47:40.883Z,26880.00
2018-10-21T08:48:40.855Z,26688.00
2018-10-21T08:49:40.871Z,26304.00
2018-10-21T08:50:40.866Z,25888.00
2018-10-21T08:51:40.868Z,25216.00
2018-10-21T08:52:40.878Z,23808.00
2018-10-21T08:53:40.884Z,23616.00
2018-10-21T08:54:40.884Z,23872.00
2018-10-21T08:55:40.900Z,24064.00
2018-10-21T08:56:40.899Z,24608.00
2018-10-21T08:57:40.905Z,24832.00
2018-10-21T08:58:40.911Z,24800.00
2018-10-21T08:59:40.916Z,24960.00
2018-10-21T09:00:40.916Z,25664.00
2018-10-21T09:01:40.923Z,26112.00
2018-10-21T09:02:40.929Z,26016.00
2018-10-21T09:03:40.932Z,25600.00
2018-10-21T09:04:40.942Z,25248.00
2018-10-21T09:05:40.953Z,25088.00
2018-10-21T09:06:40.964Z,25120.00
2018-10-21T09:07:40.960Z,25088.00
2018-10-21T09:08:40.961Z,23456.00
2018-10-21T09:09:40.967Z,21568.00
2018-10-21T09:10:41.197Z,19008.00
2018-10-21T09:11:40.984Z,17120.00
2018-10-21T09:12:40.986Z,16896.00
2018-10-21T09:13:40.996Z,16896.00
2018-10-21T09:14:40.999Z,16832.00
2018-10-21T09:15:41.005Z,16864.00
2018-10-21T09:16:41.096Z,16864.00
2018-10-21T09:17:41.024Z,16896.00
2018-10-21T09:18:41.036Z,16928.00
2018-10-21T09:19:41.038Z,16960.00
2018-10-21T09:20:41.039Z,16960.00
2018-10-21T09:21:41.046Z,16960.00
2018-10-21T09:22:41.054Z,17024.00
2018-10-21T09:23:41.135Z,17024.00
2018-10-21T09:24:41.074Z,17024.00
2018-10-21T09:25:41.080Z,17024.00
2018-10-21T09:26:41.090Z,17088.00
2018-10-21T09:27:41.091Z,17088.00
2018-10-21T09:28:41.103Z,17088.00
2018-10-21T09:29:41.115Z,17184.00
2018-10-21T09:30:41.124Z,17248.00
2018-10-21T09:31:41.129Z,17248.00
2018-10-21T09:32:41.133Z,17248.00
2018-10-21T09:33:41.141Z,17344.00
2018-10-21T09:34:41.151Z,17472.00
2018-10-21T09:35:41.155Z,17504.00
2018-10-21T09:36:41.169Z,17632.00
2018-10-21T09:37:41.177Z,17728.00
2018-10-21T09:38:41.184Z,17792.00
2018-10-21T09:39:41.193Z,17952.00
2018-10-21T09:40:41.196Z,18016.00
2018-10-21T09:41:41.204Z,18080.00
2018-10-21T09:42:41.218Z,18112.00
2018-10-21T09:43:41.225Z,18016.00
2018-10-21T09:44:41.228Z,18048.00
2018-10-21T09:45:41.238Z,18080.00
2018-10-21T09:46:41.245Z,18144.00
2018-10-21T09:47:41.253Z,18304.00
2018-10-21T09:48:41.266Z,18400.00
2018-10-21T09:49:41.285Z,18336.00
2018-10-21T09:50:41.283Z,18304.00
2018-10-21T09:51:41.289Z,18400.00
2018-10-21T09:52:41.292Z,18464.00
2018-10-21T09:53:41.300Z,18528.00
2018-10-21T09:54:41.307Z,18624.00
2018-10-21T09:55:41.315Z,18976.00
2018-10-21T09:56:41.332Z,19872.00
2018-10-21T09:57:41.337Z,20544.00
2018-10-21T09:58:41.423Z,20000.00
2018-10-21T09:59:41.346Z,19680.00
2018-10-21T10:00:41.358Z,19456.00
2018-10-21T10:01:41.366Z,19680.00
2018-10-21T10:02:41.376Z,20480.00
2018-10-21T10:03:41.427Z,22112.00
2018-10-21T10:04:41.388Z,21600.00
2018-10-21T10:05:41.396Z,19296.00
2018-10-21T10:06:41.421Z,18656.00
2018-10-21T10:07:41.411Z,18528.00
2018-10-21T10:08:41.423Z,18624.00
2018-10-21T10:09:41.432Z,18592.00
2018-10-21T10:10:41.440Z,18560.00
2018-10-21T10:11:41.446Z,18592.00
2018-10-21T10:12:41.451Z,18624.00
2018-10-21T10:13:41.460Z,18624.00
2018-10-21T10:14:41.471Z,18720.00
2018-10-21T10:15:41.479Z,18656.00
2018-10-21T10:16:41.481Z,18624.00
2018-10-21T10:17:41.540Z,18592.00
2018-10-21T10:18:41.500Z,18400.00
2018-10-21T10:19:41.507Z,18176.00
2018-10-21T10:20:41.518Z,18048.00
2018-10-21T10:21:41.527Z,17888.00
2018-10-21T10:22:41.533Z,17920.00
2018-10-21T10:23:41.544Z,17856.00
2018-10-21T10:24:41.545Z,17824.00
2018-10-21T10:25:41.552Z,17760.00
2018-10-21T10:26:41.561Z,17728.00
2018-10-21T10:27:41.567Z,17792.00
2018-10-21T10:28:41.581Z,17792.00
2018-10-21T10:29:41.589Z,17568.00
2018-10-21T10:30:41.591Z,17632.00
2018-10-21T10:31:41.598Z,17696.00
2018-10-21T10:32:41.612Z,17536.00
2018-10-21T10:33:41.619Z,17376.00
2018-10-21T10:34:41.626Z,17408.00
2018-10-21T10:35:41.634Z,17440.00
2018-10-21T10:36:41.636Z,17344.00
2018-10-21T10:37:41.644Z,17056.00
2018-10-21T10:38:41.652Z,16960.00
2018-10-21T10:39:41.659Z,16864.00
2018-10-21T10:40:41.673Z,16800.00
2018-10-21T10:41:41.754Z,16704.00
2018-10-21T10:42:41.690Z,16480.00
2018-10-21T10:43:41.703Z,16448.00
2018-10-21T10:44:41.699Z,16480.00
2018-10-21T10:45:41.707Z,16512.00
2018-10-21T10:46:41.720Z,16384.00
2018-10-21T10:47:41.733Z,16160.00
2018-10-21T10:48:41.732Z,16192.00
2018-10-21T10:49:41.740Z,16160.00
2018-10-21T10:50:41.748Z,16128.00
2018-10-21T10:51:41.768Z,16256.00
2018-10-21T10:52:41.771Z,16192.00
2018-10-21T10:53:41.777Z,16032.00
2018-10-21T10:54:41.785Z,16032.00
2018-10-21T10:55:41.792Z,15936.00
2018-10-21T10:56:41.794Z,16000.00
2018-10-21T10:57:41.803Z,15872.00
2018-10-21T10:58:41.812Z,16000.00
2018-10-21T10:59:41.869Z,16704.00
2018-10-21T11:00:41.832Z,17088.00
2018-10-21T11:01:41.840Z,17376.00
2018-10-21T11:02:41.844Z,16928.00
2018-10-21T11:03:41.852Z,16576.00
2018-10-21T11:04:41.863Z,17472.00
2018-10-21T11:05:41.871Z,18816.00
2018-10-21T11:06:41.878Z,18784.00
2018-10-21T11:07:41.884Z,19424.00
2018-10-21T11:08:41.887Z,19968.00
2018-10-21T11:09:41.896Z,20160.00
2018-10-21T11:10:41.902Z,20544.00
2018-10-21T11:11:41.907Z,22848.00
2018-10-21T11:12:41.919Z,17664.00
2018-10-21T11:13:41.925Z,6816.00
2018-10-21T11:14:41.992Z,5184.00
2018-10-21T11:15:41.938Z,5004.00
2018-10-21T11:16:41.941Z,4904.00
2018-10-21T11:17:41.944Z,4848.00
2018-10-21T11:18:41.955Z,4816.00
2018-10-21T11:19:41.961Z,4804.00
2018-10-21T11:20:41.960Z,4788.00
2018-10-21T11:21:41.987Z,4764.00
2018-10-21T11:22:42.028Z,4748.00
2018-10-21T11:23:41.971Z,4740.00
2018-10-21T11:24:41.979Z,4712.00
2018-10-21T11:25:41.987Z,4704.00
2018-10-21T11:26:41.988Z,4656.00
2018-10-21T11:27:41.990Z,4620.00
2018-10-21T11:28:41.991Z,4592.00
2018-10-21T11:29:41.991Z,4584.00
2018-10-21T11:30:41.994Z,4560.00
2018-10-21T11:31:41.994Z,4524.00
2018-10-21T11:32:42.000Z,4496.00
2018-10-21T11:33:42.002Z,4444.00
2018-10-21T11:34:42.002Z,4396.00
2018-10-21T11:35:42.000Z,4364.00
2018-10-21T11:36:42.087Z,4308.00
2018-10-21T11:37:42.133Z,4312.00
2018-10-21T11:38:42.014Z,4300.00
2018-10-21T11:39:42.010Z,4268.00
2018-10-21T11:40:42.010Z,4240.00
2018-10-21T11:41:42.006Z,4224.00
2018-10-21T11:42:42.008Z,4184.00
2018-10-21T11:43:42.006Z,4136.00
2018-10-21T11:44:42.014Z,4108.00
2018-10-21T11:45:42.062Z,4068.00
2018-10-21T11:46:42.015Z,4036.00
2018-10-21T11:47:42.012Z,4000.00
2018-10-21T11:48:42.009Z,3976.00
2018-10-21T11:49:42.008Z,3944.00
2018-10-21T11:50:42.012Z,3920.00
2018-10-21T11:51:42.011Z,3900.00
2018-10-21T11:52:42.175Z,3868.00
2018-10-21T11:53:42.007Z,3828.00
2018-10-21T11:54:42.008Z,3816.00
2018-10-21T11:55:42.005Z,3812.00
2018-10-21T11:56:42.011Z,3784.00
2018-10-21T11:57:42.010Z,3760.00
2018-10-21T11:58:42.011Z,3728.00
2018-10-21T11:59:42.016Z,3708.00
2018-10-21T12:00:42.002Z,3672.00
2018-10-21T12:01:42.002Z,3644.00
2018-10-21T12:02:41.999Z,3616.00
2018-10-21T12:03:41.997Z,3596.00
2018-10-21T12:04:42.003Z,3576.00
2018-10-21T12:05:42.000Z,3548.00
2018-10-21T12:06:41.994Z,3528.00
2018-10-21T12:07:42.000Z,3504.00
2018-10-21T12:08:42.000Z,3488.00
2018-10-21T12:09:41.998Z,3476.00
2018-10-21T12:10:41.993Z,3448.00
2018-10-21T12:11:41.989Z,3420.00
2018-10-21T12:12:41.984Z,3400.00
2018-10-21T12:13:41.982Z,3376.00
2018-10-21T12:14:41.981Z,3368.00
2018-10-21T12:15:41.979Z,3352.00
2018-10-21T12:16:41.982Z,3332.00
2018-10-21T12:17:41.982Z,3304.00
2018-10-21T12:18:41.979Z,3288.00
2018-10-21T12:19:42.027Z,3272.00
2018-10-21T12:20:41.970Z,3260.00
2018-10-21T12:21:41.969Z,3248.00
2018-10-21T12:22:41.972Z,3228.00
2018-10-21T12:23:42.019Z,3216.00
2018-10-21T12:24:41.962Z,3196.00
2018-10-21T12:25:41.973Z,3188.00
2018-10-21T12:26:41.960Z,3168.00
2018-10-21T12:27:41.958Z,3156.00
2018-10-21T12:28:41.959Z,3136.00
2018-10-21T12:29:41.960Z,3108.00
2018-10-21T12:30:41.956Z,3088.00